sensor_id;sensor_type;location;lat;lon;timestamp;pressure;altitude;pressure_sealevel;temperature;humidity
41945;BME280;63122;52.424;13.458;2024-03-08T00:00:27;101770.97;;;4.32;100.00
41945;BME280;63122;52.424;13.458;2024-03-08T00:02:48;101778.75;;;4.34;100.00
41945;BME280;63122;52.424;13.458;2024-03-08T00:04:45;101771.56;;;4.21;100.00
41945;BME280;63122;52.424;13.458;2024-03-08T00:06:38;101767.19;;;4.22;100.00
41945;BME280;63122;52.424;13.458;2024-03-08T00:08:40;101773.16;;;4.08;100.00
41945;BME280;63122;52.424;13.458;2024-03-08T00:10:33;101762.22;;;4.17;100.00
41945;BME280;63122;52.424;13.458;2024-03-08T00:12:31;101769.78;;;4.06;100.00
41945;BME280;63122;52.424;13.458;2024-03-08T00:14:29;101766.66;;;3.99;100.00
41945;BME280;63122;52.424;13.458;2024-03-08T00:16:26;101760.31;;;3.87;100.00
41945;BME280;63122;52.424;13.458;2024-03-08T00:18:25;101760.47;;;3.84;100.00
41945;BME280;63122;52.424;13.458;2024-03-08T00:20:38;101757.94;;;3.82;100.00
41945;BME280;63122;52.424;13.458;2024-03-08T00:22:34;101766.03;;;3.78;100.00
41945;BME280;63122;52.424;13.458;2024-03-08T00:24:35;101760.81;;;3.78;100.00
41945;BME280;63122;52.424;13.458;2024-03-08T00:26:31;101756.00;;;3.86;100.00
41945;BME280;63122;52.424;13.458;2024-03-08T00:28:29;101763.69;;;3.89;100.00
41945;BME280;63122;52.424;13.458;2024-03-08T00:30:24;101761.56;;;3.80;100.00
41945;BME280;63122;52.424;13.458;2024-03-08T00:32:20;101757.81;;;3.68;100.00
41945;BME280;63122;52.424;13.458;2024-03-08T00:34:19;101761.22;;;3.86;100.00
41945;BME280;63122;52.424;13.458;2024-03-08T00:36:15;101761.97;;;3.72;100.00
41945;BME280;63122;52.424;13.458;2024-03-08T00:38:12;101757.16;;;3.80;100.00
41945;BME280;63122;52.424;13.458;2024-03-08T00:40:09;101759.94;;;3.77;100.00
41945;BME280;63122;52.424;13.458;2024-03-08T00:42:04;101753.25;;;3.89;100.00
41945;BME280;63122;52.424;13.458;2024-03-08T00:44:01;101753.03;;;3.76;100.00
41945;BME280;63122;52.424;13.458;2024-03-08T00:46:00;101759.72;;;3.64;100.00
41945;BME280;63122;52.424;13.458;2024-03-08T00:47:56;101753.69;;;3.64;100.00
41945;BME280;63122;52.424;13.458;2024-03-08T00:49:56;101753.44;;;3.68;100.00
41945;BME280;63122;52.424;13.458;2024-03-08T00:51:52;101751.38;;;3.57;100.00
41945;BME280;63122;52.424;13.458;2024-03-08T00:53:48;101750.28;;;3.62;100.00
41945;BME280;63122;52.424;13.458;2024-03-08T00:55:44;101752.06;;;3.61;100.00
41945;BME280;63122;52.424;13.458;2024-03-08T00:57:40;101749.69;;;3.56;100.00
41945;BME280;63122;52.424;13.458;2024-03-08T00:59:39;101746.03;;;3.43;100.00
41945;BME280;63122;52.424;13.458;2024-03-08T01:01:35;101740.28;;;3.36;100.00
41945;BME280;63122;52.424;13.458;2024-03-08T01:03:32;101735.00;;;3.38;100.00
41945;BME280;63122;52.424;13.458;2024-03-08T01:05:30;101745.13;;;3.44;100.00
41945;BME280;63122;52.424;13.458;2024-03-08T01:07:24;101743.38;;;3.27;100.00
41945;BME280;63122;52.424;13.458;2024-03-08T01:09:19;101738.75;;;3.32;100.00
41945;BME280;63122;52.424;13.458;2024-03-08T01:11:15;101738.53;;;3.19;100.00
41945;BME280;63122;52.424;13.458;2024-03-08T01:13:10;101739.97;;;3.07;100.00
41945;BME280;63122;52.424;13.458;2024-03-08T01:15:06;101731.09;;;3.11;100.00
41945;BME280;63122;52.424;13.458;2024-03-08T01:17:02;101728.25;;;3.16;100.00
41945;BME280;63122;52.424;13.458;2024-03-08T01:18:57;101726.19;;;3.05;100.00
41945;BME280;63122;52.424;13.458;2024-03-08T01:20:53;101725.81;;;3.13;100.00
41945;BME280;63122;52.424;13.458;2024-03-08T01:22:51;101722.81;;;3.03;100.00
41945;BME280;63122;52.424;13.458;2024-03-08T01:24:47;101719.59;;;2.98;100.00
41945;BME280;63122;52.424;13.458;2024-03-08T01:26:39;101714.03;;;2.86;100.00
41945;BME280;63122;52.424;13.458;2024-03-08T01:28:35;101713.53;;;2.97;100.00
41945;BME280;63122;52.424;13.458;2024-03-08T01:30:31;101710.09;;;2.97;100.00
41945;BME280;63122;52.424;13.458;2024-03-08T01:32:24;101712.06;;;2.92;100.00
41945;BME280;63122;52.424;13.458;2024-03-08T01:34:20;101709.31;;;2.95;100.00
41945;BME280;63122;52.424;13.458;2024-03-08T01:36:18;101701.88;;;2.87;100.00
41945;BME280;63122;52.424;13.458;2024-03-08T01:38:12;101701.34;;;2.98;100.00
41945;BME280;63122;52.424;13.458;2024-03-08T01:40:08;101704.38;;;2.71;100.00
41945;BME280;63122;52.424;13.458;2024-03-08T01:42:03;101698.78;;;2.79;100.00
41945;BME280;63122;52.424;13.458;2024-03-08T01:43:56;101695.66;;;2.90;100.00
41945;BME280;63122;52.424;13.458;2024-03-08T01:45:52;101691.88;;;2.78;100.00
41945;BME280;63122;52.424;13.458;2024-03-08T01:47:45;101701.47;;;2.77;100.00
41945;BME280;63122;52.424;13.458;2024-03-08T01:49:41;101692.91;;;2.75;100.00
41945;BME280;63122;52.424;13.458;2024-03-08T01:51:39;101694.78;;;2.71;100.00
41945;BME280;63122;52.424;13.458;2024-03-08T01:53:35;101690.28;;;2.75;100.00
41945;BME280;63122;52.424;13.458;2024-03-08T01:55:30;101676.94;;;2.81;100.00
41945;BME280;63122;52.424;13.458;2024-03-08T01:57:23;101682.63;;;2.72;100.00
41945;BME280;63122;52.424;13.458;2024-03-08T01:59:19;101677.41;;;2.72;100.00
41945;BME280;63122;52.424;13.458;2024-03-08T02:01:13;101678.94;;;2.76;100.00
41945;BME280;63122;52.424;13.458;2024-03-08T02:03:08;101676.19;;;2.79;100.00
41945;BME280;63122;52.424;13.458;2024-03-08T02:05:05;101673.88;;;2.73;100.00
41945;BME280;63122;52.424;13.458;2024-03-08T02:07:03;101672.41;;;2.67;100.00
41945;BME280;63122;52.424;13.458;2024-03-08T02:09:02;101673.03;;;2.72;100.00
41945;BME280;63122;52.424;13.458;2024-03-08T02:10:58;101672.41;;;2.67;100.00
41945;BME280;63122;52.424;13.458;2024-03-08T02:12:51;101666.59;;;2.62;100.00
41945;BME280;63122;52.424;13.458;2024-03-08T02:14:46;101664.53;;;2.69;100.00
41945;BME280;63122;52.424;13.458;2024-03-08T02:16:42;101670.03;;;2.63;100.00
41945;BME280;63122;52.424;13.458;2024-03-08T02:18:37;101664.66;;;2.48;100.00
41945;BME280;63122;52.424;13.458;2024-03-08T02:20:35;101668.03;;;2.50;100.00
41945;BME280;63122;52.424;13.458;2024-03-08T02:22:31;101663.38;;;2.57;100.00
41945;BME280;63122;52.424;13.458;2024-03-08T02:24:24;101671.41;;;2.52;100.00
41945;BME280;63122;52.424;13.458;2024-03-08T02:26:19;101667.88;;;2.53;100.00
41945;BME280;63122;52.424;13.458;2024-03-08T02:28:13;101666.34;;;2.49;100.00
41945;BME280;63122;52.424;13.458;2024-03-08T02:30:11;101662.13;;;2.47;100.00
41945;BME280;63122;52.424;13.458;2024-03-08T02:32:09;101664.25;;;2.38;100.00
41945;BME280;63122;52.424;13.458;2024-03-08T02:34:04;101660.81;;;2.38;100.00
41945;BME280;63122;52.424;13.458;2024-03-08T02:36:00;101664.03;;;2.43;100.00
41945;BME280;63122;52.424;13.458;2024-03-08T02:37:56;101663.34;;;2.39;100.00
41945;BME280;63122;52.424;13.458;2024-03-08T02:39:48;101659.81;;;2.40;100.00
41945;BME280;63122;52.424;13.458;2024-03-08T02:41:44;101651.59;;;2.30;100.00
41945;BME280;63122;52.424;13.458;2024-03-08T02:43:39;101656.94;;;2.27;100.00
41945;BME280;63122;52.424;13.458;2024-03-08T02:45:32;101650.97;;;2.25;100.00
41945;BME280;63122;52.424;13.458;2024-03-08T02:47:27;101648.94;;;2.32;100.00
41945;BME280;63122;52.424;13.458;2024-03-08T02:49:23;101651.38;;;2.35;100.00
41945;BME280;63122;52.424;13.458;2024-03-08T02:51:22;101648.69;;;2.37;100.00
41945;BME280;63122;52.424;13.458;2024-03-08T02:53:18;101647.31;;;2.29;100.00
41945;BME280;63122;52.424;13.458;2024-03-08T02:55:15;101644.09;;;2.24;100.00
41945;BME280;63122;52.424;13.458;2024-03-08T02:57:10;101651.84;;;2.26;100.00
41945;BME280;63122;52.424;13.458;2024-03-08T02:59:05;101650.06;;;2.26;100.00
41945;BME280;63122;52.424;13.458;2024-03-08T03:01:02;101646.06;;;2.19;100.00
41945;BME280;63122;52.424;13.458;2024-03-08T03:52:02;101630.91;;;1.71;100.00
41945;BME280;63122;52.424;13.458;2024-03-08T03:53:58;101631.47;;;1.78;100.00
41945;BME280;63122;52.424;13.458;2024-03-08T03:55:51;101627.25;;;1.76;100.00
41945;BME280;63122;52.424;13.458;2024-03-08T03:57:47;101626.41;;;1.75;100.00
41945;BME280;63122;52.424;13.458;2024-03-08T03:59:40;101626.75;;;1.67;100.00
41945;BME280;63122;52.424;13.458;2024-03-08T04:01:36;101630.22;;;1.68;100.00
41945;BME280;63122;52.424;13.458;2024-03-08T04:03:31;101623.53;;;1.62;100.00
41945;BME280;63122;52.424;13.458;2024-03-08T04:05:27;101634.13;;;1.57;100.00
41945;BME280;63122;52.424;13.458;2024-03-08T04:07:25;101627.25;;;1.56;100.00
41945;BME280;63122;52.424;13.458;2024-03-08T04:09:21;101630.69;;;1.57;100.00
41945;BME280;63122;52.424;13.458;2024-03-08T04:11:16;101622.59;;;1.63;100.00
41945;BME280;63122;52.424;13.458;2024-03-08T04:13:12;101621.06;;;1.59;100.00
41945;BME280;63122;52.424;13.458;2024-03-08T04:15:08;101625.97;;;1.65;100.00
41945;BME280;63122;52.424;13.458;2024-03-08T04:17:04;101628.50;;;1.67;100.00
41945;BME280;63122;52.424;13.458;2024-03-08T04:19:00;101627.19;;;1.58;100.00
41945;BME280;63122;52.424;13.458;2024-03-08T04:20:57;101628.34;;;1.51;100.00
41945;BME280;63122;52.424;13.458;2024-03-08T04:22:54;101634.06;;;1.40;100.00
41945;BME280;63122;52.424;13.458;2024-03-08T04:24:50;101635.66;;;1.42;100.00
41945;BME280;63122;52.424;13.458;2024-03-08T04:26:46;101636.00;;;1.35;100.00
41945;BME280;63122;52.424;13.458;2024-03-08T04:28:39;101628.06;;;1.38;100.00
41945;BME280;63122;52.424;13.458;2024-03-08T04:30:34;101627.38;;;1.34;100.00
41945;BME280;63122;52.424;13.458;2024-03-08T04:32:29;101627.63;;;1.28;100.00
41945;BME280;63122;52.424;13.458;2024-03-08T04:34:25;101624.75;;;1.34;100.00
41945;BME280;63122;52.424;13.458;2024-03-08T04:36:20;101628.28;;;1.33;100.00
41945;BME280;63122;52.424;13.458;2024-03-08T04:38:19;101630.59;;;1.39;100.00
41945;BME280;63122;52.424;13.458;2024-03-08T04:40:15;101630.72;;;1.36;100.00
41945;BME280;63122;52.424;13.458;2024-03-08T04:42:11;101624.81;;;1.33;100.00
41945;BME280;63122;52.424;13.458;2024-03-08T04:44:07;101625.72;;;1.32;100.00
41945;BME280;63122;52.424;13.458;2024-03-08T04:46:02;101628.13;;;1.36;100.00
41945;BME280;63122;52.424;13.458;2024-03-08T04:47:58;101615.91;;;1.38;100.00
41945;BME280;63122;52.424;13.458;2024-03-08T04:49:50;101623.44;;;1.44;100.00
41945;BME280;63122;52.424;13.458;2024-03-08T04:51:47;101620.91;;;1.43;100.00
41945;BME280;63122;52.424;13.458;2024-03-08T04:53:45;101615.00;;;1.39;100.00
41945;BME280;63122;52.424;13.458;2024-03-08T04:55:40;101623.84;;;1.35;100.00
41945;BME280;63122;52.424;13.458;2024-03-08T04:57:36;101617.16;;;1.29;100.00
41945;BME280;63122;52.424;13.458;2024-03-08T04:59:32;101616.47;;;1.26;100.00
41945;BME280;63122;52.424;13.458;2024-03-08T05:01:28;101621.59;;;1.27;100.00
41945;BME280;63122;52.424;13.458;2024-03-08T05:03:21;101619.75;;;1.29;100.00
41945;BME280;63122;52.424;13.458;2024-03-08T05:05:18;101611.88;;;1.12;100.00
41945;BME280;63122;52.424;13.458;2024-03-08T05:07:13;101619.88;;;1.26;100.00
41945;BME280;63122;52.424;13.458;2024-03-08T05:09:11;101616.38;;;1.27;100.00
41945;BME280;63122;52.424;13.458;2024-03-08T05:11:09;101612.16;;;1.25;100.00
41945;BME280;63122;52.424;13.458;2024-03-08T05:13:06;101619.16;;;1.23;100.00
41945;BME280;63122;52.424;13.458;2024-03-08T05:15:02;101613.16;;;1.22;100.00
41945;BME280;63122;52.424;13.458;2024-03-08T05:16:59;101614.88;;;1.22;100.00
41945;BME280;63122;52.424;13.458;2024-03-08T05:18:55;101621.03;;;1.00;100.00
41945;BME280;63122;52.424;13.458;2024-03-08T05:20:49;101618.81;;;1.11;100.00
41945;BME280;63122;52.424;13.458;2024-03-08T05:22:45;101620.91;;;1.03;100.00
41945;BME280;63122;52.424;13.458;2024-03-08T05:24:42;101620.13;;;1.01;100.00
41945;BME280;63122;52.424;13.458;2024-03-08T05:26:38;101618.94;;;1.08;100.00
41945;BME280;63122;52.424;13.458;2024-03-08T05:28:31;101620.63;;;1.09;100.00
41945;BME280;63122;52.424;13.458;2024-03-08T05:30:27;101609.78;;;0.99;100.00
41945;BME280;63122;52.424;13.458;2024-03-08T05:32:19;101614.03;;;1.02;100.00
41945;BME280;63122;52.424;13.458;2024-03-08T05:34:15;101607.81;;;1.05;100.00
41945;BME280;63122;52.424;13.458;2024-03-08T05:36:11;101605.56;;;0.97;100.00
41945;BME280;63122;52.424;13.458;2024-03-08T05:38:09;101603.81;;;0.97;100.00
41945;BME280;63122;52.424;13.458;2024-03-08T05:40:05;101606.03;;;0.86;100.00
41945;BME280;63122;52.424;13.458;2024-03-08T05:42:09;101608.94;;;0.78;100.00
41945;BME280;63122;52.424;13.458;2024-03-08T05:44:04;101609.91;;;0.76;100.00
41945;BME280;63122;52.424;13.458;2024-03-08T05:45:57;101617.72;;;0.76;100.00
41945;BME280;63122;52.424;13.458;2024-03-08T05:47:53;101595.88;;;0.80;100.00
41945;BME280;63122;52.424;13.458;2024-03-08T05:49:46;101598.94;;;0.90;100.00
41945;BME280;63122;52.424;13.458;2024-03-08T05:51:41;101609.53;;;0.85;100.00
41945;BME280;63122;52.424;13.458;2024-03-08T05:53:34;101612.31;;;0.80;100.00
41945;BME280;63122;52.424;13.458;2024-03-08T05:55:32;101608.22;;;0.75;100.00
41945;BME280;63122;52.424;13.458;2024-03-08T05:57:29;101613.03;;;0.63;100.00
41945;BME280;63122;52.424;13.458;2024-03-08T05:59:24;101619.97;;;0.42;100.00
41945;BME280;63122;52.424;13.458;2024-03-08T06:01:20;101616.84;;;0.54;100.00
41945;BME280;63122;52.424;13.458;2024-03-08T06:03:14;101615.28;;;0.50;100.00
41945;BME280;63122;52.424;13.458;2024-03-08T06:05:11;101619.28;;;0.59;100.00
41945;BME280;63122;52.424;13.458;2024-03-08T06:07:04;101621.44;;;0.70;100.00
41945;BME280;63122;52.424;13.458;2024-03-08T06:09:05;101620.53;;;0.71;100.00
41945;BME280;63122;52.424;13.458;2024-03-08T06:11:07;101623.22;;;0.68;100.00
41945;BME280;63122;52.424;13.458;2024-03-08T06:13:03;101622.38;;;0.67;100.00
41945;BME280;63122;52.424;13.458;2024-03-08T06:14:58;101617.38;;;0.63;100.00
41945;BME280;63122;52.424;13.458;2024-03-08T06:16:54;101618.75;;;0.71;100.00
41945;BME280;63122;52.424;13.458;2024-03-08T06:18:49;101619.84;;;0.66;100.00
41945;BME280;63122;52.424;13.458;2024-03-08T06:20:45;101621.91;;;0.57;100.00
41945;BME280;63122;52.424;13.458;2024-03-08T06:22:40;101629.53;;;0.62;100.00
41945;BME280;63122;52.424;13.458;2024-03-08T06:24:37;101621.78;;;0.61;100.00
41945;BME280;63122;52.424;13.458;2024-03-08T06:26:32;101620.69;;;0.66;100.00
41945;BME280;63122;52.424;13.458;2024-03-08T06:28:31;101626.16;;;0.60;100.00
41945;BME280;63122;52.424;13.458;2024-03-08T06:30:24;101622.25;;;0.70;100.00
41945;BME280;63122;52.424;13.458;2024-03-08T06:32:20;101625.63;;;0.73;100.00
41945;BME280;63122;52.424;13.458;2024-03-08T06:34:15;101622.06;;;0.75;100.00
41945;BME280;63122;52.424;13.458;2024-03-08T06:36:11;101620.00;;;0.83;100.00
41945;BME280;63122;52.424;13.458;2024-03-08T06:38:11;101621.16;;;0.76;100.00
41945;BME280;63122;52.424;13.458;2024-03-08T06:40:08;101618.03;;;0.89;100.00
41945;BME280;63122;52.424;13.458;2024-03-08T06:42:07;101619.72;;;0.90;100.00
41945;BME280;63122;52.424;13.458;2024-03-08T06:44:03;101608.16;;;0.97;100.00
41945;BME280;63122;52.424;13.458;2024-03-08T06:46:00;101611.88;;;0.91;100.00
41945;BME280;63122;52.424;13.458;2024-03-08T06:47:56;101609.88;;;0.98;100.00
41945;BME280;63122;52.424;13.458;2024-03-08T06:49:52;101606.34;;;0.99;100.00
41945;BME280;63122;52.424;13.458;2024-03-08T06:51:45;101602.84;;;1.00;100.00
41945;BME280;63122;52.424;13.458;2024-03-08T06:53:40;101607.00;;;1.04;100.00
41945;BME280;63122;52.424;13.458;2024-03-08T06:55:36;101600.66;;;1.10;100.00
41945;BME280;63122;52.424;13.458;2024-03-08T06:57:32;101608.81;;;1.02;100.00
41945;BME280;63122;52.424;13.458;2024-03-08T06:59:27;101607.97;;;1.02;100.00
41945;BME280;63122;52.424;13.458;2024-03-08T07:01:20;101612.06;;;1.07;100.00
41945;BME280;63122;52.424;13.458;2024-03-08T07:03:16;101617.94;;;1.11;100.00
41945;BME280;63122;52.424;13.458;2024-03-08T07:05:10;101611.94;;;1.10;100.00
41945;BME280;63122;52.424;13.458;2024-03-08T07:07:05;101615.25;;;1.14;100.00
41945;BME280;63122;52.424;13.458;2024-03-08T07:09:00;101609.91;;;1.17;100.00
41945;BME280;63122;52.424;13.458;2024-03-08T07:10:56;101613.88;;;1.26;100.00
41945;BME280;63122;52.424;13.458;2024-03-08T07:12:54;101612.88;;;1.28;100.00
41945;BME280;63122;52.424;13.458;2024-03-08T07:14:50;101601.94;;;1.41;100.00
41945;BME280;63122;52.424;13.458;2024-03-08T07:16:46;101604.31;;;1.46;100.00
41945;BME280;63122;52.424;13.458;2024-03-08T07:18:42;101609.38;;;1.49;100.00
41945;BME280;63122;52.424;13.458;2024-03-08T07:20:38;101613.13;;;1.43;100.00
41945;BME280;63122;52.424;13.458;2024-03-08T07:22:34;101603.19;;;1.51;100.00
41945;BME280;63122;52.424;13.458;2024-03-08T07:24:31;101608.13;;;1.57;100.00
41945;BME280;63122;52.424;13.458;2024-03-08T07:26:48;101605.38;;;1.61;100.00
41945;BME280;63122;52.424;13.458;2024-03-08T07:28:47;101606.09;;;1.64;100.00
41945;BME280;63122;52.424;13.458;2024-03-08T07:30:42;101613.81;;;1.66;100.00
41945;BME280;63122;52.424;13.458;2024-03-08T07:33:00;101603.66;;;1.79;100.00
41945;BME280;63122;52.424;13.458;2024-03-08T07:34:56;101600.97;;;1.82;100.00
41945;BME280;63122;52.424;13.458;2024-03-08T07:36:48;101597.91;;;1.91;100.00
41945;BME280;63122;52.424;13.458;2024-03-08T07:38:45;101594.09;;;1.98;100.00
41945;BME280;63122;52.424;13.458;2024-03-08T07:40:41;101596.34;;;2.06;100.00
41945;BME280;63122;52.424;13.458;2024-03-08T07:42:39;101595.72;;;2.01;100.00
41945;BME280;63122;52.424;13.458;2024-03-08T07:44:37;101594.44;;;2.10;100.00
41945;BME280;63122;52.424;13.458;2024-03-08T07:46:33;101590.78;;;2.14;100.00
41945;BME280;63122;52.424;13.458;2024-03-08T07:48:26;101594.66;;;2.23;100.00
41945;BME280;63122;52.424;13.458;2024-03-08T07:50:23;101589.25;;;2.27;100.00
41945;BME280;63122;52.424;13.458;2024-03-08T07:52:16;101586.72;;;2.26;100.00
41945;BME280;63122;52.424;13.458;2024-03-08T07:54:11;101589.19;;;2.29;100.00
41945;BME280;63122;52.424;13.458;2024-03-08T07:56:07;101583.66;;;2.35;100.00
41945;BME280;63122;52.424;13.458;2024-03-08T07:58:05;101581.47;;;2.45;100.00
41945;BME280;63122;52.424;13.458;2024-03-08T08:00:06;101583.75;;;2.51;100.00
41945;BME280;63122;52.424;13.458;2024-03-08T08:02:00;101583.59;;;2.54;100.00
41945;BME280;63122;52.424;13.458;2024-03-08T08:03:56;101582.38;;;2.62;100.00
41945;BME280;63122;52.424;13.458;2024-03-08T08:05:49;101585.50;;;2.68;100.00
41945;BME280;63122;52.424;13.458;2024-03-08T08:07:46;101579.97;;;2.74;100.00
41945;BME280;63122;52.424;13.458;2024-03-08T08:09:45;101576.16;;;2.82;100.00
41945;BME280;63122;52.424;13.458;2024-03-08T08:11:41;101580.56;;;2.97;100.00
41945;BME280;63122;52.424;13.458;2024-03-08T08:13:38;101584.09;;;2.96;100.00
41945;BME280;63122;52.424;13.458;2024-03-08T08:15:38;101573.88;;;3.09;100.00
41945;BME280;63122;52.424;13.458;2024-03-08T08:17:33;101575.69;;;3.25;100.00
41945;BME280;63122;52.424;13.458;2024-03-08T08:19:30;101569.03;;;3.35;100.00
41945;BME280;63122;52.424;13.458;2024-03-08T08:21:24;101565.44;;;3.54;100.00
41945;BME280;63122;52.424;13.458;2024-03-08T08:23:19;101573.88;;;3.59;100.00
41945;BME280;63122;52.424;13.458;2024-03-08T08:25:15;101578.00;;;3.63;100.00
41945;BME280;63122;52.424;13.458;2024-03-08T08:27:13;101570.16;;;3.79;100.00
41945;BME280;63122;52.424;13.458;2024-03-08T08:29:08;101572.00;;;3.93;100.00
41945;BME280;63122;52.424;13.458;2024-03-08T08:31:06;101566.88;;;3.92;100.00
41945;BME280;63122;52.424;13.458;2024-03-08T08:33:02;101566.88;;;3.92;100.00
41945;BME280;63122;52.424;13.458;2024-03-08T08:34:58;101572.56;;;3.98;100.00
41945;BME280;63122;52.424;13.458;2024-03-08T08:36:52;101567.50;;;4.11;100.00
41945;BME280;63122;52.424;13.458;2024-03-08T08:38:48;101570.94;;;4.28;100.00
41945;BME280;63122;52.424;13.458;2024-03-08T08:40:43;101561.97;;;4.32;100.00
41945;BME280;63122;52.424;13.458;2024-03-08T08:42:39;101558.19;;;4.38;100.00
41945;BME280;63122;52.424;13.458;2024-03-08T08:44:35;101555.59;;;4.52;100.00
41945;BME280;63122;52.424;13.458;2024-03-08T08:46:34;101557.69;;;4.61;100.00
41945;BME280;63122;52.424;13.458;2024-03-08T08:48:34;101549.72;;;4.63;100.00
41945;BME280;63122;52.424;13.458;2024-03-08T08:50:30;101547.59;;;4.84;100.00
41945;BME280;63122;52.424;13.458;2024-03-08T08:52:26;101538.72;;;5.01;100.00
41945;BME280;63122;52.424;13.458;2024-03-08T08:54:21;101542.75;;;5.07;100.00
41945;BME280;63122;52.424;13.458;2024-03-08T08:56:17;101536.03;;;5.17;100.00
41945;BME280;63122;52.424;13.458;2024-03-08T08:58:14;101535.66;;;5.24;100.00
41945;BME280;63122;52.424;13.458;2024-03-08T09:00:12;101531.31;;;5.37;100.00
41945;BME280;63122;52.424;13.458;2024-03-08T09:02:11;101533.25;;;5.48;100.00
41945;BME280;63122;52.424;13.458;2024-03-08T09:04:10;101527.34;;;5.59;100.00
41945;BME280;63122;52.424;13.458;2024-03-08T09:06:07;101531.09;;;5.55;100.00
41945;BME280;63122;52.424;13.458;2024-03-08T09:08:05;101529.78;;;5.62;100.00
41945;BME280;63122;52.424;13.458;2024-03-08T09:10:01;101525.00;;;5.69;100.00
41945;BME280;63122;52.424;13.458;2024-03-08T09:12:09;101528.00;;;5.90;100.00
41945;BME280;63122;52.424;13.458;2024-03-08T09:14:06;101524.88;;;5.98;97.72
41945;BME280;63122;52.424;13.458;2024-03-08T09:16:03;101521.41;;;5.97;95.09
41945;BME280;63122;52.424;13.458;2024-03-08T09:18:02;101523.38;;;6.21;91.71
41945;BME280;63122;52.424;13.458;2024-03-08T09:19:55;101519.00;;;6.22;92.57
41945;BME280;63122;52.424;13.458;2024-03-08T09:21:51;101514.38;;;6.25;91.54
41945;BME280;63122;52.424;13.458;2024-03-08T09:23:55;101519.34;;;6.43;91.70
41945;BME280;63122;52.424;13.458;2024-03-08T09:25:50;101509.59;;;6.58;95.05
41945;BME280;63122;52.424;13.458;2024-03-08T09:27:46;101507.06;;;6.69;92.30
41945;BME280;63122;52.424;13.458;2024-03-08T09:29:43;101500.34;;;6.65;85.35
41945;BME280;63122;52.424;13.458;2024-03-08T09:31:42;101492.41;;;6.67;84.41
41945;BME280;63122;52.424;13.458;2024-03-08T09:33:44;101504.44;;;6.82;85.59
41945;BME280;63122;52.424;13.458;2024-03-08T09:35:42;101506.63;;;7.01;81.29
41945;BME280;63122;52.424;13.458;2024-03-08T09:37:39;101502.72;;;7.07;78.96
41945;BME280;63122;52.424;13.458;2024-03-08T09:39:44;101497.28;;;6.97;78.95
41945;BME280;63122;52.424;13.458;2024-03-08T09:41:42;101498.75;;;7.01;77.59
41945;BME280;63122;52.424;13.458;2024-03-08T09:43:41;101491.97;;;7.23;78.87
41945;BME280;63122;52.424;13.458;2024-03-08T09:45:37;101499.56;;;7.15;78.01
41945;BME280;63122;52.424;13.458;2024-03-08T09:47:34;101484.03;;;7.12;74.92
41945;BME280;63122;52.424;13.458;2024-03-08T09:49:33;101490.78;;;7.40;71.03
41945;BME280;63122;52.424;13.458;2024-03-08T09:51:33;101501.75;;;7.58;69.85
41945;BME280;63122;52.424;13.458;2024-03-08T09:53:30;101484.25;;;7.46;67.94
41945;BME280;63122;52.424;13.458;2024-03-08T09:55:24;101483.88;;;7.63;67.42
41945;BME280;63122;52.424;13.458;2024-03-08T09:57:25;101483.63;;;7.67;67.07
41945;BME280;63122;52.424;13.458;2024-03-08T09:59:20;101478.31;;;7.80;67.32
41945;BME280;63122;52.424;13.458;2024-03-08T10:01:35;101478.81;;;7.85;66.01
41945;BME280;63122;52.424;13.458;2024-03-08T10:03:32;101474.53;;;7.95;64.33
41945;BME280;63122;52.424;13.458;2024-03-08T10:05:28;101461.34;;;8.19;62.54
41945;BME280;63122;52.424;13.458;2024-03-08T10:07:25;101457.69;;;8.45;61.87
41945;BME280;63122;52.424;13.458;2024-03-08T10:09:21;101472.97;;;8.40;59.29
41945;BME280;63122;52.424;13.458;2024-03-08T10:11:18;101455.28;;;8.42;57.73
41945;BME280;63122;52.424;13.458;2024-03-08T10:13:13;101460.22;;;8.46;56.74
41945;BME280;63122;52.424;13.458;2024-03-08T10:15:12;101462.03;;;8.57;57.61
41945;BME280;63122;52.424;13.458;2024-03-08T10:17:09;101455.34;;;8.64;59.41
41945;BME280;63122;52.424;13.458;2024-03-08T10:19:05;101444.09;;;8.85;58.83
41945;BME280;63122;52.424;13.458;2024-03-08T10:21:05;101452.06;;;9.06;56.82
41945;BME280;63122;52.424;13.458;2024-03-08T10:23:04;101448.44;;;9.30;54.59
41945;BME280;63122;52.424;13.458;2024-03-08T10:25:04;101446.06;;;9.27;54.54
41945;BME280;63122;52.424;13.458;2024-03-08T10:27:00;101447.72;;;9.28;54.73
41945;BME280;63122;52.424;13.458;2024-03-08T10:28:57;101442.84;;;9.56;53.99
41945;BME280;63122;52.424;13.458;2024-03-08T10:30:51;101435.47;;;9.71;53.04
41945;BME280;63122;52.424;13.458;2024-03-08T10:32:46;101439.47;;;9.87;52.55
41945;BME280;63122;52.424;13.458;2024-03-08T10:34:42;101444.16;;;10.04;51.72
41945;BME280;63122;52.424;13.458;2024-03-08T10:36:42;101439.16;;;10.01;49.93
41945;BME280;63122;52.424;13.458;2024-03-08T10:38:36;101434.59;;;10.03;49.46
41945;BME280;63122;52.424;13.458;2024-03-08T10:40:32;101437.75;;;9.97;48.71
41945;BME280;63122;52.424;13.458;2024-03-08T10:42:28;101427.56;;;10.14;48.12
41945;BME280;63122;52.424;13.458;2024-03-08T10:44:43;101426.44;;;10.37;48.09
41945;BME280;63122;52.424;13.458;2024-03-08T10:46:51;101426.84;;;10.54;48.01
41945;BME280;63122;52.424;13.458;2024-03-08T10:48:49;101424.13;;;10.75;46.26
41945;BME280;63122;52.424;13.458;2024-03-08T10:50:48;101425.91;;;10.65;45.16